createdAt,value
2018-09-22T00:01:35.476Z,99.90
2018-09-22T00:04:04.800Z,99.90
2018-09-22T00:06:33.763Z,99.90
2018-09-22T00:09:02.669Z,99.90
2018-09-22T00:11:31.554Z,99.90
2018-09-22T00:14:01.063Z,99.90
2018-09-22T00:16:30.679Z,99.90
2018-09-22T00:19:00.644Z,99.90
2018-09-22T00:21:29.645Z,99.90
2018-09-22T00:23:58.669Z,99.90
2018-09-22T00:26:27.515Z,99.90
2018-09-22T00:28:56.611Z,99.90
2018-09-22T00:31:25.783Z,99.90
2018-09-22T00:33:54.793Z,99.90
2018-09-22T00:36:23.793Z,99.90
2018-09-22T00:38:52.752Z,99.90
2018-09-22T00:41:22.244Z,99.90
2018-09-22T00:43:51.893Z,99.90
2018-09-22T00:46:21.652Z,99.90
2018-09-22T00:48:50.646Z,99.90
2018-09-22T00:51:19.578Z,99.90
2018-09-22T00:53:48.649Z,99.90
2018-09-22T00:56:17.697Z,99.90
2018-09-22T00:58:47.738Z,99.90
2018-09-22T01:01:16.861Z,99.90
2018-09-22T01:03:45.892Z,99.90
2018-09-22T01:06:17.020Z,99.90
2018-09-22T01:08:46.425Z,99.90
2018-09-22T01:11:15.490Z,99.90
2018-09-22T01:13:44.457Z,99.90
2018-09-22T01:16:13.490Z,99.90
2018-09-22T01:18:42.452Z,99.90
2018-09-22T01:21:11.379Z,99.90
2018-09-22T01:23:40.316Z,99.90
2018-09-22T01:26:09.275Z,99.90
2018-09-22T01:28:38.253Z,99.90
2018-09-22T01:31:08.124Z,99.90
2018-09-22T01:33:37.080Z,99.90
2018-09-22T01:36:05.984Z,99.90
2018-09-22T01:38:34.904Z,99.90
2018-09-22T01:41:03.997Z,99.90
2018-09-22T01:43:32.913Z,99.90
2018-09-22T01:46:01.813Z,99.90
2018-09-22T01:48:30.827Z,99.90
2018-09-22T01:51:00.030Z,99.90
2018-09-22T01:53:29.161Z,99.90
2018-09-22T01:55:58.076Z,99.90
2018-09-22T01:58:27.036Z,99.90
2018-09-22T02:00:56.003Z,99.90
2018-09-22T02:03:25.521Z,99.90
2018-09-22T02:05:54.428Z,99.90
2018-09-22T02:08:23.349Z,99.90
2018-09-22T02:10:52.553Z,99.90
2018-09-22T02:13:21.643Z,99.90
2018-09-22T02:15:50.594Z,99.90
2018-09-22T02:18:19.451Z,99.90
2018-09-22T02:20:48.661Z,99.90
2018-09-22T02:23:17.637Z,99.90
2018-09-22T02:25:46.550Z,99.90
2018-09-22T02:28:15.467Z,99.90
2018-09-22T02:30:44.489Z,99.90
2018-09-22T02:33:14.207Z,99.90
2018-09-22T02:35:43.141Z,99.90
2018-09-22T02:38:12.166Z,99.90
2018-09-22T02:40:42.478Z,99.90
2018-09-22T02:43:11.276Z,99.90
2018-09-22T02:45:40.139Z,99.90
2018-09-22T02:48:09.040Z,99.90
2018-09-22T02:50:38.037Z,99.90
2018-09-22T02:53:06.853Z,99.90
2018-09-22T02:55:35.739Z,99.90
2018-09-22T02:58:04.820Z,99.90
2018-09-22T03:00:33.773Z,99.90
2018-09-22T03:03:02.817Z,99.90
2018-09-22T03:05:31.700Z,99.90
2018-09-22T03:08:00.989Z,99.90
2018-09-22T03:10:29.908Z,99.90
2018-09-22T03:12:59.312Z,99.90
2018-09-22T03:15:28.211Z,99.90
2018-09-22T03:17:56.935Z,99.90
2018-09-22T03:20:26.028Z,99.90
2018-09-22T03:22:55.107Z,99.90
2018-09-22T03:25:24.122Z,99.90
2018-09-22T03:27:53.004Z,99.90
2018-09-22T03:30:21.952Z,99.90
2018-09-22T03:32:50.986Z,99.90
2018-09-22T03:35:19.937Z,99.90
2018-09-22T03:37:48.831Z,99.90
2018-09-22T03:40:17.860Z,99.90
2018-09-22T03:42:46.728Z,99.90
2018-09-22T03:45:15.933Z,99.90
2018-09-22T03:47:44.780Z,99.90
2018-09-22T03:50:14.116Z,99.90
2018-09-22T03:52:43.039Z,99.90
2018-09-22T03:55:12.061Z,99.90
2018-09-22T03:57:40.888Z,99.90
2018-09-22T04:00:10.052Z,99.90
2018-09-22T04:02:39.051Z,99.90
2018-09-22T04:05:08.038Z,99.90
2018-09-22T04:07:37.147Z,99.90
2018-09-22T04:10:05.968Z,99.90
2018-09-22T04:12:34.872Z,99.90
2018-09-22T04:15:03.765Z,99.90
2018-09-22T04:17:32.667Z,99.90
2018-09-22T04:20:01.627Z,99.90
2018-09-22T04:22:30.448Z,99.90
2018-09-22T04:24:59.288Z,99.90
2018-09-22T04:27:28.096Z,99.90
2018-09-22T04:29:57.060Z,99.90
2018-09-22T04:32:25.948Z,99.90
2018-09-22T04:34:54.775Z,99.90
2018-09-22T04:37:25.681Z,99.90
2018-09-22T04:39:54.612Z,99.90
2018-09-22T04:42:23.528Z,99.90
2018-09-22T04:44:52.582Z,99.90
2018-09-22T04:47:21.426Z,99.90
2018-09-22T04:49:50.288Z,99.90
2018-09-22T04:52:19.230Z,99.90
2018-09-22T04:54:48.077Z,99.90
2018-09-22T04:57:17.159Z,99.90
2018-09-22T04:59:46.086Z,99.90
2018-09-22T05:02:14.976Z,99.90
2018-09-22T05:04:43.888Z,99.90
2018-09-22T05:07:12.743Z,99.90
2018-09-22T05:09:41.576Z,99.90
2018-09-22T05:12:10.529Z,99.90
2018-09-22T05:14:39.460Z,99.90
2018-09-22T05:17:08.298Z,99.90
2018-09-22T05:19:37.207Z,99.90
2018-09-22T05:22:06.191Z,99.90
2018-09-22T05:24:35.171Z,99.90
2018-09-22T05:27:04.068Z,99.90
2018-09-22T05:29:32.907Z,99.90
2018-09-22T05:32:01.936Z,99.90
2018-09-22T05:34:30.794Z,99.90
2018-09-22T05:36:59.640Z,99.90
2018-09-22T05:39:29.305Z,99.90
2018-09-22T05:41:58.137Z,99.90
2018-09-22T05:44:27.185Z,99.90
2018-09-22T05:46:58.251Z,99.90
2018-09-22T05:49:28.821Z,99.90
2018-09-22T05:51:58.678Z,99.90
2018-09-22T05:54:28.624Z,99.90
2018-09-22T05:56:57.553Z,99.90
2018-09-22T05:59:26.501Z,99.90
2018-09-22T06:01:55.350Z,99.90
2018-09-22T06:04:24.235Z,99.90
2018-09-22T06:06:53.040Z,99.90
2018-09-22T06:09:22.138Z,99.90
2018-09-22T06:11:51.011Z,99.90
2018-09-22T06:14:19.866Z,99.90
2018-09-22T06:16:58.855Z,99.90
2018-09-22T06:19:27.997Z,99.90
2018-09-22T06:21:56.860Z,99.90
2018-09-22T06:24:26.794Z,99.90
2018-09-22T06:26:57.653Z,99.90
2018-09-22T06:29:26.441Z,99.90
2018-09-22T06:31:55.303Z,99.90
2018-09-22T06:34:25.116Z,99.90
2018-09-22T06:36:53.956Z,99.90
2018-09-22T06:39:22.792Z,99.90
2018-09-22T06:41:51.639Z,99.90
2018-09-22T06:44:20.489Z,99.90
2018-09-22T06:46:49.308Z,99.90
2018-09-22T06:52:09.416Z,99.90
2018-09-22T06:54:38.287Z,99.90
2018-09-22T06:57:07.052Z,99.90
2018-09-22T06:59:35.845Z,99.90
2018-09-22T07:02:04.628Z,99.90
2018-09-22T07:04:33.456Z,99.90
2018-09-22T07:07:02.419Z,99.90
2018-09-22T07:09:31.339Z,99.90
2018-09-22T07:12:00.200Z,99.90
2018-09-22T07:17:44.007Z,99.90
2018-09-22T07:20:13.419Z,99.90
2018-09-22T07:22:48.352Z,99.90
2018-09-22T07:25:17.399Z,99.90
2018-09-22T07:27:46.343Z,99.90
2018-09-22T07:30:15.124Z,99.90
2018-09-22T07:32:44.064Z,99.90
2018-09-22T07:35:12.956Z,99.90
2018-09-22T07:37:41.807Z,99.90
2018-09-22T07:40:10.695Z,99.90
2018-09-22T07:42:39.543Z,99.90
2018-09-22T07:45:08.488Z,99.90
2018-09-22T07:47:37.322Z,99.90
2018-09-22T07:50:06.180Z,99.90
2018-09-22T07:52:35.100Z,99.90
2018-09-22T07:55:04.215Z,99.90
2018-09-22T07:57:33.045Z,99.90
2018-09-22T08:00:01.952Z,99.90
2018-09-22T08:02:30.770Z,99.90
2018-09-22T08:04:59.608Z,99.90
2018-09-22T08:07:28.420Z,99.90
2018-09-22T08:09:57.299Z,99.90
2018-09-22T08:12:26.186Z,99.90
2018-09-22T08:14:54.997Z,99.90
2018-09-22T08:17:23.992Z,99.90
2018-09-22T08:19:52.835Z,99.90
2018-09-22T08:22:21.695Z,99.90
2018-09-22T08:24:50.631Z,99.90
2018-09-22T08:27:19.448Z,99.90
2018-09-22T08:29:48.244Z,99.90
2018-09-22T08:32:17.107Z,99.90
2018-09-22T08:34:45.960Z,99.90
2018-09-22T08:37:14.939Z,99.90
2018-09-22T08:39:43.775Z,99.90
2018-09-22T08:42:12.735Z,99.90
2018-09-22T08:44:41.588Z,99.90
2018-09-22T08:47:10.469Z,99.90
2018-09-22T08:49:39.301Z,99.90
2018-09-22T08:52:08.229Z,99.90
2018-09-22T08:54:37.122Z,99.90
2018-09-22T08:57:06.074Z,99.90
2018-09-22T08:59:34.902Z,99.90
2018-09-22T09:02:03.872Z,99.90
2018-09-22T09:04:32.724Z,99.90
2018-09-22T09:07:01.623Z,99.90
2018-09-22T09:09:30.627Z,99.30
2018-09-22T09:11:59.607Z,99.00
2018-09-22T09:14:28.510Z,99.90
2018-09-22T09:16:57.372Z,99.80
2018-09-22T09:19:26.404Z,98.20
2018-09-22T09:21:55.687Z,99.90
2018-09-22T09:24:24.589Z,97.70
2018-09-22T09:26:53.615Z,97.40
2018-09-22T09:29:22.408Z,98.10
2018-09-22T09:31:51.255Z,96.30
2018-09-22T09:34:20.145Z,96.70
2018-09-22T09:36:49.096Z,96.40
2018-09-22T09:39:18.060Z,96.90
2018-09-22T09:41:46.976Z,98.00
2018-09-22T09:44:15.966Z,95.60
2018-09-22T09:46:45.008Z,96.10
2018-09-22T09:49:13.986Z,97.50
2018-09-22T09:51:42.866Z,95.20
2018-09-22T09:54:11.870Z,94.70
2018-09-22T09:56:40.944Z,94.60
2018-09-22T09:59:09.835Z,95.60
2018-09-22T10:01:38.715Z,94.20
2018-09-22T10:04:07.687Z,94.60
2018-09-22T10:06:36.640Z,93.40
2018-09-22T10:09:07.294Z,94.80
2018-09-22T10:11:36.244Z,93.50
2018-09-22T10:14:05.079Z,94.00
2018-09-22T10:16:33.945Z,94.90
2018-09-22T10:19:02.943Z,95.50
2018-09-22T10:21:31.790Z,94.30
2018-09-22T10:24:00.730Z,94.20
2018-09-22T10:26:29.704Z,94.90
2018-09-22T10:28:58.567Z,92.70
2018-09-22T10:31:27.414Z,92.10
2018-09-22T10:33:56.407Z,92.80
2018-09-22T10:36:25.286Z,93.90
2018-09-22T10:38:54.221Z,93.50
2018-09-22T10:41:23.048Z,92.90
2018-09-22T10:43:51.953Z,92.40
2018-09-22T10:46:20.862Z,93.90
2018-09-22T10:48:49.755Z,93.70
2018-09-22T10:51:18.770Z,91.80
2018-09-22T10:53:47.683Z,91.20
2018-09-22T10:56:16.573Z,91.00
2018-09-22T10:58:45.440Z,92.60
2018-09-22T11:01:14.623Z,91.70
2018-09-22T11:03:43.551Z,89.10
2018-09-22T11:06:12.988Z,88.90
2018-09-22T11:08:41.929Z,90.30
2018-09-22T11:11:10.908Z,90.50
2018-09-22T11:13:39.895Z,88.70
2018-09-22T11:16:08.740Z,86.90
2018-09-22T11:18:37.712Z,87.60
2018-09-22T11:21:06.572Z,86.40
2018-09-22T11:23:35.437Z,86.20
2018-09-22T11:26:04.435Z,87.10
2018-09-22T11:28:33.648Z,86.90
2018-09-22T11:31:02.481Z,82.30
2018-09-22T11:33:31.340Z,80.30
2018-09-22T11:36:00.213Z,81.40
2018-09-22T11:38:29.208Z,79.60
2018-09-22T11:40:57.915Z,78.80
2018-09-22T11:43:26.811Z,76.80
2018-09-22T11:45:55.682Z,79.20
2018-09-22T11:48:24.512Z,78.20
2018-09-22T11:50:53.528Z,77.10
2018-09-22T11:53:22.353Z,75.00
2018-09-22T11:55:52.150Z,74.60
2018-09-22T11:58:21.053Z,74.20
2018-09-22T12:00:49.953Z,75.10
2018-09-22T12:03:18.840Z,72.60
2018-09-22T12:05:47.779Z,77.20
2018-09-22T12:08:16.628Z,75.80
2018-09-22T12:10:45.486Z,77.20
2018-09-22T12:13:14.449Z,71.00
2018-09-22T12:15:43.267Z,69.60
2018-09-22T12:18:12.157Z,74.70
2018-09-22T12:20:41.031Z,72.70
2018-09-22T12:23:09.847Z,73.90
2018-09-22T12:25:38.791Z,74.20
2018-09-22T12:28:07.825Z,73.90
2018-09-22T12:30:36.656Z,72.60
2018-09-22T12:33:05.503Z,72.80
2018-09-22T12:35:35.038Z,68.90
2018-09-22T12:38:03.951Z,67.90
2018-09-22T12:40:32.853Z,70.50
2018-09-22T12:43:01.700Z,68.00
2018-09-22T12:45:30.594Z,66.60
2018-09-22T12:47:59.497Z,67.00
2018-09-22T12:50:28.972Z,67.70
2018-09-22T12:52:57.836Z,67.30
2018-09-22T12:55:26.697Z,66.30
2018-09-22T12:57:55.536Z,66.90
2018-09-22T13:00:24.464Z,68.60
2018-09-22T13:02:53.324Z,67.10
2018-09-22T13:05:22.212Z,65.60
2018-09-22T13:07:51.244Z,66.10
2018-09-22T13:10:20.251Z,64.10
2018-09-22T13:12:49.069Z,65.60
2018-09-22T13:15:17.880Z,66.90
2018-09-22T13:17:47.174Z,65.10
2018-09-22T13:20:16.159Z,63.60
2018-09-22T13:22:45.262Z,65.10
2018-09-22T13:26:05.175Z,64.30
2018-09-22T13:28:34.300Z,64.20
2018-09-22T13:31:04.842Z,67.20
2018-09-22T13:33:33.738Z,69.40
2018-09-22T13:36:02.700Z,65.50
2018-09-22T13:38:31.822Z,66.00
2018-09-22T13:41:00.853Z,65.00
2018-09-22T13:43:29.812Z,65.20
2018-09-22T13:45:58.703Z,67.00
2018-09-22T13:48:27.576Z,63.70
2018-09-22T13:50:57.147Z,64.30
2018-09-22T13:53:27.007Z,62.40
2018-09-22T13:55:55.875Z,64.40
2018-09-22T13:58:24.703Z,62.20
2018-09-22T14:00:53.559Z,62.20
2018-09-22T14:03:22.465Z,61.60
2018-09-22T14:05:51.304Z,62.70
2018-09-22T14:08:20.152Z,63.10
2018-09-22T14:10:49.068Z,60.50
2018-09-22T14:13:17.897Z,60.50
2018-09-22T14:15:46.754Z,60.40
2018-09-22T14:18:15.583Z,60.30
2018-09-22T14:20:44.477Z,59.60
2018-09-22T14:23:13.340Z,59.40
2018-09-22T14:25:42.176Z,60.10
2018-09-22T14:28:11.074Z,59.30
2018-09-22T14:30:39.880Z,59.70
2018-09-22T14:33:08.740Z,59.00
2018-09-22T14:35:37.588Z,60.40
2018-09-22T14:38:06.488Z,59.90
2018-09-22T14:40:35.320Z,61.20
2018-09-22T14:43:04.155Z,60.70
2018-09-22T14:45:33.048Z,59.30
2018-09-22T14:48:01.984Z,60.60
2018-09-22T14:50:30.977Z,59.50
2018-09-22T14:52:59.871Z,60.30
2018-09-22T14:55:28.740Z,59.70
2018-09-22T14:57:57.579Z,57.70
2018-09-22T15:00:26.413Z,57.80
2018-09-22T15:02:55.363Z,57.00
2018-09-22T15:05:24.234Z,57.30
2018-09-22T15:07:53.051Z,56.30
2018-09-22T15:10:21.935Z,56.10
2018-09-22T15:12:50.746Z,56.50
2018-09-22T15:15:19.542Z,56.90
2018-09-22T15:17:48.435Z,56.00
2018-09-22T15:20:18.364Z,56.90
2018-09-22T15:22:47.171Z,57.30
2018-09-22T15:25:16.286Z,57.30
2018-09-22T15:27:45.081Z,56.20
2018-09-22T15:30:13.912Z,56.70
2018-09-22T15:32:42.703Z,57.40
2018-09-22T15:35:11.622Z,58.70
2018-09-22T15:37:40.436Z,58.10
2018-09-22T15:40:09.248Z,58.10
2018-09-22T15:42:38.396Z,58.70
2018-09-22T15:45:07.716Z,59.10
2018-09-22T15:47:36.526Z,58.40
2018-09-22T15:50:05.391Z,58.50
2018-09-22T15:52:34.327Z,57.40
2018-09-22T15:55:03.180Z,57.40
2018-09-22T15:57:33.148Z,56.60
2018-09-22T16:00:01.978Z,56.80
2018-09-22T16:02:30.805Z,57.40
2018-09-22T16:04:59.631Z,58.10
2018-09-22T16:07:28.446Z,59.20
2018-09-22T16:09:57.249Z,60.50
2018-09-22T16:12:26.096Z,60.60
2018-09-22T16:14:54.889Z,61.30
2018-09-22T16:17:23.726Z,61.80
2018-09-22T16:19:52.531Z,62.40
2018-09-22T16:22:24.396Z,62.20
2018-09-22T16:24:53.308Z,63.50
2018-09-22T16:27:22.191Z,63.60
2018-09-22T16:29:51.084Z,64.00
2018-09-22T16:32:19.938Z,64.50
2018-09-22T16:34:48.750Z,65.10
2018-09-22T16:37:17.917Z,65.70
2018-09-22T16:39:46.733Z,66.50
2018-09-22T16:42:15.614Z,66.90
2018-09-22T16:44:44.543Z,66.30
2018-09-22T16:47:13.401Z,66.80
2018-09-22T16:49:42.273Z,66.50
2018-09-22T16:52:11.172Z,65.70
2018-09-22T16:54:40.020Z,66.50
2018-09-22T16:57:09.032Z,66.90
2018-09-22T16:59:37.872Z,67.50
2018-09-22T17:02:06.740Z,67.80
2018-09-22T17:04:35.596Z,68.50
2018-09-22T17:07:04.483Z,72.10
2018-09-22T17:09:33.477Z,73.20
2018-09-22T17:12:02.389Z,81.00
2018-09-22T17:14:31.247Z,81.00
2018-09-22T17:17:00.079Z,84.80
2018-09-22T17:19:28.982Z,85.90
2018-09-22T17:21:57.784Z,84.40
2018-09-22T17:24:26.628Z,88.40
2018-09-22T17:26:55.439Z,94.50
2018-09-22T17:29:24.282Z,97.90
2018-09-22T17:31:53.220Z,99.90
2018-09-22T17:34:22.110Z,99.90
2018-09-22T17:36:50.878Z,99.90
2018-09-22T17:39:19.796Z,99.90
2018-09-22T17:41:48.615Z,99.90
2018-09-22T17:44:17.461Z,99.90
2018-09-22T17:46:46.324Z,99.90
2018-09-22T17:49:15.152Z,99.90
2018-09-22T17:51:43.955Z,99.90
2018-09-22T17:54:12.908Z,99.90
2018-09-22T17:56:41.728Z,99.90
2018-09-22T17:59:10.620Z,99.90
2018-09-22T18:01:39.428Z,99.90
2018-09-22T18:04:08.302Z,99.90
2018-09-22T18:06:37.088Z,99.90
2018-09-22T18:09:07.569Z,99.90
2018-09-22T18:11:36.816Z,99.90
2018-09-22T18:14:06.579Z,99.90
2018-09-22T18:16:35.524Z,99.90
2018-09-22T18:19:04.320Z,99.90
2018-09-22T18:21:33.275Z,99.90
2018-09-22T18:24:02.188Z,99.90
2018-09-22T18:26:31.088Z,99.90
2018-09-22T18:28:59.886Z,99.90
2018-09-22T18:31:29.758Z,99.90
2018-09-22T18:33:58.613Z,99.90
2018-09-22T18:36:27.416Z,99.90
2018-09-22T18:38:56.280Z,99.90
2018-09-22T18:41:26.148Z,99.90
2018-09-22T18:43:56.048Z,99.90
2018-09-22T18:46:26.871Z,99.90
2018-09-22T18:48:55.689Z,99.90
2018-09-22T18:51:26.631Z,99.90
2018-09-22T18:53:55.464Z,99.90
2018-09-22T18:56:24.288Z,99.90
2018-09-22T18:59:09.527Z,99.90
2018-09-22T19:01:38.639Z,99.90
2018-09-22T19:04:11.297Z,99.90
2018-09-22T19:06:40.225Z,99.90
2018-09-22T19:09:09.997Z,99.90
2018-09-22T19:11:38.939Z,99.90
2018-09-22T19:14:43.431Z,99.90
2018-09-22T19:17:18.630Z,99.90
2018-09-22T19:19:57.627Z,99.90
2018-09-22T19:22:37.315Z,99.90
2018-09-22T19:25:10.890Z,99.90
2018-09-22T19:27:46.189Z,99.90
2018-09-22T19:30:19.163Z,99.90
2018-09-22T19:32:53.951Z,99.90
2018-09-22T19:35:28.383Z,99.90
2018-09-22T19:38:03.115Z,99.90
2018-09-22T19:40:51.768Z,99.90
2018-09-22T19:43:28.229Z,99.90
2018-09-22T19:46:00.485Z,99.90
2018-09-22T19:48:39.887Z,99.90
2018-09-22T19:51:11.076Z,99.90
2018-09-22T19:53:41.715Z,99.90
2018-09-22T19:56:10.844Z,99.90
2018-09-22T19:58:39.825Z,99.90
2018-09-22T20:01:09.155Z,99.90
2018-09-22T20:03:45.051Z,99.90
2018-09-22T20:06:15.172Z,99.90
2018-09-22T20:08:44.338Z,99.90
2018-09-22T20:11:13.981Z,99.90
2018-09-22T20:13:42.886Z,99.90
2018-09-22T20:16:11.764Z,99.90
2018-09-22T20:18:40.651Z,99.90
2018-09-22T20:21:09.518Z,99.90
2018-09-22T20:23:38.352Z,99.90
2018-09-22T20:26:08.833Z,99.90
2018-09-22T20:28:37.939Z,99.90
2018-09-22T20:31:07.089Z,99.90
2018-09-22T20:33:36.285Z,99.90
2018-09-22T20:36:05.582Z,99.90
2018-09-22T20:38:34.612Z,99.90
2018-09-22T20:41:03.884Z,99.90
2018-09-22T20:43:33.167Z,99.90
2018-09-22T20:46:03.375Z,99.90
2018-09-22T20:48:32.362Z,99.90
2018-09-22T20:51:01.667Z,99.90
2018-09-22T20:53:30.715Z,99.90
2018-09-22T20:56:00.069Z,99.90
2018-09-22T20:58:29.375Z,99.90
2018-09-22T21:00:58.385Z,99.90
2018-09-22T21:03:28.902Z,99.90
2018-09-22T21:06:04.961Z,99.90
2018-09-22T21:08:34.230Z,99.90
2018-09-22T21:11:03.585Z,99.90
2018-09-22T21:13:33.005Z,99.90
2018-09-22T21:16:10.568Z,99.90
2018-09-22T21:18:39.934Z,99.90
2018-09-22T21:21:09.185Z,99.90
2018-09-22T21:23:45.358Z,99.90
2018-09-22T21:26:15.340Z,99.90
2018-09-22T21:28:44.300Z,99.90
2018-09-22T21:32:16.578Z,99.90
2018-09-22T21:34:45.712Z,99.90
2018-09-22T21:37:14.516Z,99.90
2018-09-22T21:39:43.336Z,99.90
2018-09-22T21:42:12.244Z,99.90
2018-09-22T21:44:41.070Z,99.90
2018-09-22T21:47:10.040Z,99.90
2018-09-22T21:49:38.836Z,99.90
2018-09-22T21:52:07.784Z,99.90
2018-09-22T21:54:37.010Z,99.90
2018-09-22T21:57:05.838Z,99.90
2018-09-22T21:59:34.636Z,99.90
2018-09-22T22:02:03.572Z,99.90
2018-09-22T22:04:32.839Z,99.90
2018-09-22T22:07:02.343Z,99.90
2018-09-22T22:09:31.253Z,99.90
2018-09-22T22:12:00.075Z,99.90
2018-09-22T22:14:29.091Z,99.90
2018-09-22T22:16:57.959Z,99.90
2018-09-22T22:19:27.872Z,99.90
2018-09-22T22:21:56.679Z,99.90
2018-09-22T22:24:25.631Z,99.90
2018-09-22T22:26:54.589Z,99.90
2018-09-22T22:29:23.507Z,99.90
2018-09-22T22:31:52.396Z,99.90
2018-09-22T22:34:21.361Z,99.90
2018-09-22T22:36:50.195Z,99.90
2018-09-22T22:39:19.123Z,99.90
2018-09-22T22:41:47.931Z,99.90
2018-09-22T22:44:16.860Z,99.90
2018-09-22T22:46:45.779Z,99.90
2018-09-22T22:49:14.598Z,99.90
2018-09-22T22:51:43.496Z,99.90
2018-09-22T22:54:12.304Z,99.90
2018-09-22T22:56:41.208Z,99.90
2018-09-22T22:59:10.078Z,99.90
2018-09-22T23:01:38.961Z,99.90
2018-09-22T23:04:07.925Z,99.90
2018-09-22T23:06:36.840Z,99.90
2018-09-22T23:09:07.073Z,99.90
2018-09-22T23:11:35.916Z,99.90
2018-09-22T23:14:04.711Z,99.90
2018-09-22T23:16:33.551Z,99.90
2018-09-22T23:19:02.760Z,99.90
2018-09-22T23:21:31.587Z,99.90
2018-09-22T23:24:00.447Z,99.90
2018-09-22T23:26:29.344Z,99.90
2018-09-22T23:28:58.195Z,99.90
2018-09-22T23:31:27.032Z,99.90
2018-09-22T23:33:56.036Z,99.90
2018-09-22T23:36:24.989Z,99.90
2018-09-22T23:38:54.205Z,99.90
2018-09-22T23:41:24.873Z,99.90
2018-09-22T23:43:57.938Z,99.90
2018-09-22T23:46:27.234Z,99.90
2018-09-22T23:48:56.533Z,99.90
2018-09-22T23:51:26.707Z,99.90
2018-09-22T23:53:56.092Z,99.90
2018-09-22T23:56:26.806Z,99.90
2018-09-22T23:58:56.229Z,99.90
